Kathryn, North Dakota
Current Conditions -  °F | °C
As of 8:15 AM on Thursday 30 Oct 2014 (Local Time) from KBAC Reporting Station
Unknown Precip Unknown Precip  
Wind Chill: 25°   Ceiling: 2200
Heat Index: 36°   Visibility: 10mi
Dew Point: 36°   Wind: 20mph
Humidity: 100%   Direction: 20°NNE
Pressure: 30.14"   Gusts: 30mph
Location:  46.68°N, 97.97°W
Report Text: KBAC 301315Z AUTO 02017G26KT 10SM UP OVC022 02/02 A3014 RMK AO2
Loading
Personal Weather Stations






























Interactive Weather Map
Tropical Storm Tracking
New forecast layout! Learn more

10-Day Weather Forecast

Advertisements
Track Severe Weather on mobile